Belfast, ME (04915)

12:18 PM EDT on July 24, 2016 (GMT -0400)
Belfast (Lower Mason Pond) | | Change Station

Elev 160 ft 44.45 °N, 69.01 °W | Updated 15 seconds ago

Clear
Clear
78.1 °F
Feels Like 80 °F
N
0.2
Wind Variable Wind from WSW
Gusts 2.5 mph

Today
High -- | Low -- °F
--% Chance of Precip.
Yesterday
High -- | Low -- °F
Precip. -- in
Pressure 29.90 in
Visibility 10.0 miles
Clouds Clear
Heat Index 80 °F
Dew Point 64 °F
Humidity 62%
Rainfall 0.00 in
Snow Depth Not available.
5:14 AM 8:09 PM
Waning Gibbous, 75% visible
METAR KRKD 241556Z AUTO VRB04KT 10SM CLR 26/16 A2989 RMK AO2 SLP123 T02560156
Pressure 29.90 in
Visibility 10.0 miles
Clouds Clear
Heat Index 80 °F
Dew Point 64 °F
Humidity 62%
Rainfall 0.00 in
Snow Depth Not available.
5:14 AM 8:09 PM
Waning Gibbous, 75% visible
METAR KRKD 241556Z AUTO VRB04KT 10SM CLR 26/16 A2989 RMK AO2 SLP123 T02560156

10-Day Weather Forecast

Almanac

Astronomy

Jul. 24, 2016 Rise Set
Actual Time
Civil Twilight
Nautical Twilight
Astronomical Twilight
Moon
Length of Visible Light
Length of Day
Tomorrow will be .
, % of the Moon is Illuminated

Today's Extremes

State Highs State Lows

Community

WunderPhotos

Upload Photos

1,927,120 photos uploaded!

WunderBlog® & News

Nearby

Air Quality

  Air Quality AQ Index Pollutant
Not available.

Snow Depth

Station Depth Elevation

Earthquake Activity

City Distance Mag. Time & Date
Minimum magnitude displayed is 2.5.

Coastal Water Temperatures

Place Temperature

Stations

Nearby Weather Stations

Station Location Temp. Windchill Dew Point Humidity Wind Precip. Elev Updated Type
                   

Watches & Warnings

There are currently no watches in effect.